sensor_id;sensor_type;location;lat;lon;timestamp;pressure;altitude;pressure_sealevel;temperature;humidity
6413;BME280;3239;48.714;9.472;2023-05-23T00:01:54;98334.00;;;16.63;100.00
6413;BME280;3239;48.714;9.472;2023-05-23T00:04:23;98336.97;;;16.57;100.00
6413;BME280;3239;48.714;9.472;2023-05-23T00:06:52;98336.38;;;16.66;100.00
6413;BME280;3239;48.714;9.472;2023-05-23T00:09:18;98338.00;;;16.69;100.00
6413;BME280;3239;48.714;9.472;2023-05-23T00:11:44;98341.56;;;16.62;100.00
6413;BME280;3239;48.714;9.472;2023-05-23T00:14:14;98358.69;;;16.61;100.00
6413;BME280;3239;48.714;9.472;2023-05-23T00:16:44;98364.78;;;16.59;100.00
6413;BME280;3239;48.714;9.472;2023-05-23T00:19:11;98370.69;;;16.63;100.00
6413;BME280;3239;48.714;9.472;2023-05-23T00:21:39;98363.56;;;16.53;100.00
6413;BME280;3239;48.714;9.472;2023-05-23T00:24:06;98373.88;;;16.52;100.00
6413;BME280;3239;48.714;9.472;2023-05-23T00:26:32;98381.81;;;16.33;100.00
6413;BME280;3239;48.714;9.472;2023-05-23T00:28:58;98383.66;;;16.38;100.00
6413;BME280;3239;48.714;9.472;2023-05-23T00:31:24;98382.00;;;16.50;100.00
6413;BME280;3239;48.714;9.472;2023-05-23T00:33:50;98390.81;;;16.56;100.00
6413;BME280;3239;48.714;9.472;2023-05-23T00:36:16;98383.94;;;16.72;100.00
6413;BME280;3239;48.714;9.472;2023-05-23T00:38:42;98387.78;;;16.77;100.00
6413;BME280;3239;48.714;9.472;2023-05-23T00:41:10;98384.78;;;16.90;100.00
6413;BME280;3239;48.714;9.472;2023-05-23T00:43:36;98390.69;;;16.86;100.00
6413;BME280;3239;48.714;9.472;2023-05-23T00:46:02;98394.94;;;16.87;100.00
6413;BME280;3239;48.714;9.472;2023-05-23T00:48:28;98401.19;;;16.88;100.00
6413;BME280;3239;48.714;9.472;2023-05-23T00:50:55;98415.03;;;16.88;100.00
6413;BME280;3239;48.714;9.472;2023-05-23T00:53:21;98406.91;;;16.90;100.00
6413;BME280;3239;48.714;9.472;2023-05-23T00:55:47;98414.03;;;17.00;100.00
6413;BME280;3239;48.714;9.472;2023-05-23T00:58:13;98423.09;;;17.01;100.00
6413;BME280;3239;48.714;9.472;2023-05-23T01:00:41;98425.13;;;17.00;100.00
6413;BME280;3239;48.714;9.472;2023-05-23T01:03:07;98426.03;;;17.03;100.00
6413;BME280;3239;48.714;9.472;2023-05-23T01:05:33;98425.50;;;16.97;100.00
6413;BME280;3239;48.714;9.472;2023-05-23T01:07:58;98427.00;;;16.90;100.00
6413;BME280;3239;48.714;9.472;2023-05-23T01:10:29;98413.88;;;16.51;100.00
6413;BME280;3239;48.714;9.472;2023-05-23T01:13:14;98416.28;;;16.47;100.00
6413;BME280;3239;48.714;9.472;2023-05-23T01:18:35;98416.44;;;16.57;100.00
6413;BME280;3239;48.714;9.472;2023-05-23T01:21:29;98419.38;;;16.66;100.00
6413;BME280;3239;48.714;9.472;2023-05-23T01:24:53;98410.31;;;16.66;100.00
6413;BME280;3239;48.714;9.472;2023-05-23T01:30:12;98415.28;;;16.75;100.00
6413;BME280;3239;48.714;9.472;2023-05-23T01:32:42;98417.09;;;16.80;100.00
6413;BME280;3239;48.714;9.472;2023-05-23T01:35:10;98422.25;;;16.83;100.00
6413;BME280;3239;48.714;9.472;2023-05-23T01:37:36;98421.13;;;16.86;100.00
6413;BME280;3239;48.714;9.472;2023-05-23T01:40:02;98421.47;;;16.90;100.00
6413;BME280;3239;48.714;9.472;2023-05-23T01:42:28;98425.00;;;16.83;100.00
6413;BME280;3239;48.714;9.472;2023-05-23T01:44:54;98433.25;;;16.98;100.00
6413;BME280;3239;48.714;9.472;2023-05-23T01:47:23;98433.69;;;16.87;100.00
6413;BME280;3239;48.714;9.472;2023-05-23T01:49:50;98429.50;;;16.71;100.00
6413;BME280;3239;48.714;9.472;2023-05-23T01:52:16;98434.66;;;16.67;100.00
6413;BME280;3239;48.714;9.472;2023-05-23T01:54:43;98432.78;;;16.77;100.00
6413;BME280;3239;48.714;9.472;2023-05-23T01:57:09;98436.63;;;16.82;100.00
6413;BME280;3239;48.714;9.472;2023-05-23T01:59:36;98430.00;;;16.85;100.00
6413;BME280;3239;48.714;9.472;2023-05-23T02:02:03;98436.59;;;16.89;100.00
6413;BME280;3239;48.714;9.472;2023-05-23T02:04:29;98438.63;;;16.89;100.00
6413;BME280;3239;48.714;9.472;2023-05-23T02:06:55;98438.81;;;16.91;100.00
6413;BME280;3239;48.714;9.472;2023-05-23T02:09:21;98448.16;;;17.03;100.00
6413;BME280;3239;48.714;9.472;2023-05-23T02:11:46;98443.34;;;17.11;100.00
6413;BME280;3239;48.714;9.472;2023-05-23T02:14:12;98436.88;;;17.08;100.00
6413;BME280;3239;48.714;9.472;2023-05-23T02:16:38;98438.75;;;17.06;100.00
6413;BME280;3239;48.714;9.472;2023-05-23T02:19:03;98426.41;;;16.99;100.00
6413;BME280;3239;48.714;9.472;2023-05-23T02:21:29;98427.19;;;16.92;100.00
6413;BME280;3239;48.714;9.472;2023-05-23T02:23:56;98423.13;;;16.93;100.00
6413;BME280;3239;48.714;9.472;2023-05-23T02:26:22;98421.69;;;16.85;100.00
6413;BME280;3239;48.714;9.472;2023-05-23T02:28:47;98429.09;;;16.75;100.00
6413;BME280;3239;48.714;9.472;2023-05-23T02:31:13;98431.88;;;16.75;100.00
6413;BME280;3239;48.714;9.472;2023-05-23T02:33:39;98431.75;;;16.65;100.00
6413;BME280;3239;48.714;9.472;2023-05-23T02:36:04;98436.91;;;16.61;100.00
6413;BME280;3239;48.714;9.472;2023-05-23T02:38:31;98439.16;;;16.55;100.00
6413;BME280;3239;48.714;9.472;2023-05-23T02:40:57;98438.03;;;16.51;100.00
6413;BME280;3239;48.714;9.472;2023-05-23T02:43:23;98447.06;;;16.51;100.00
6413;BME280;3239;48.714;9.472;2023-05-23T02:45:48;98450.56;;;16.52;100.00
6413;BME280;3239;48.714;9.472;2023-05-23T02:48:14;98447.63;;;16.50;100.00
6413;BME280;3239;48.714;9.472;2023-05-23T02:50:40;98466.44;;;16.51;100.00
6413;BME280;3239;48.714;9.472;2023-05-23T02:53:06;98461.09;;;16.46;100.00
6413;BME280;3239;48.714;9.472;2023-05-23T02:55:32;98474.19;;;16.45;100.00
6413;BME280;3239;48.714;9.472;2023-05-23T02:57:57;98479.72;;;16.53;100.00
6413;BME280;3239;48.714;9.472;2023-05-23T03:00:24;98476.56;;;16.56;100.00
6413;BME280;3239;48.714;9.472;2023-05-23T03:02:49;98475.66;;;16.54;100.00
6413;BME280;3239;48.714;9.472;2023-05-23T03:05:15;98489.09;;;16.57;100.00
6413;BME280;3239;48.714;9.472;2023-05-23T03:07:41;98487.25;;;16.60;100.00
6413;BME280;3239;48.714;9.472;2023-05-23T03:10:08;98500.16;;;16.65;100.00
6413;BME280;3239;48.714;9.472;2023-05-23T03:12:34;98494.63;;;16.65;100.00
6413;BME280;3239;48.714;9.472;2023-05-23T03:15:01;98489.63;;;16.63;100.00
6413;BME280;3239;48.714;9.472;2023-05-23T03:17:27;98494.63;;;16.65;100.00
6413;BME280;3239;48.714;9.472;2023-05-23T03:19:53;98482.44;;;16.68;100.00
6413;BME280;3239;48.714;9.472;2023-05-23T03:22:19;98485.94;;;16.68;100.00
6413;BME280;3239;48.714;9.472;2023-05-23T03:24:44;98482.09;;;16.56;100.00
6413;BME280;3239;48.714;9.472;2023-05-23T03:27:10;98488.72;;;16.61;100.00
6413;BME280;3239;48.714;9.472;2023-05-23T03:29:36;98487.63;;;16.64;100.00
6413;BME280;3239;48.714;9.472;2023-05-23T03:32:01;98489.25;;;16.67;100.00
6413;BME280;3239;48.714;9.472;2023-05-23T03:34:27;98489.63;;;16.63;100.00
6413;BME280;3239;48.714;9.472;2023-05-23T03:36:53;98491.84;;;16.65;100.00
6413;BME280;3239;48.714;9.472;2023-05-23T03:39:19;98496.47;;;16.62;100.00
6413;BME280;3239;48.714;9.472;2023-05-23T03:41:44;98495.16;;;16.63;100.00
6413;BME280;3239;48.714;9.472;2023-05-23T03:44:10;98496.47;;;16.55;100.00
6413;BME280;3239;48.714;9.472;2023-05-23T03:46:36;98503.50;;;16.41;100.00
6413;BME280;3239;48.714;9.472;2023-05-23T03:49:02;98502.94;;;16.27;100.00
6413;BME280;3239;48.714;9.472;2023-05-23T03:51:28;98510.31;;;16.17;100.00
6413;BME280;3239;48.714;9.472;2023-05-23T03:53:53;98509.78;;;16.11;100.00
6413;BME280;3239;48.714;9.472;2023-05-23T03:56:19;98506.28;;;16.11;100.00
6413;BME280;3239;48.714;9.472;2023-05-23T03:58:45;98509.97;;;15.91;100.00
6413;BME280;3239;48.714;9.472;2023-05-23T04:01:11;98518.25;;;15.98;100.00
6413;BME280;3239;48.714;9.472;2023-05-23T04:03:37;98535.59;;;15.91;100.00
6413;BME280;3239;48.714;9.472;2023-05-23T04:06:03;98531.53;;;16.00;100.00
6413;BME280;3239;48.714;9.472;2023-05-23T04:08:29;98537.78;;;16.08;100.00
6413;BME280;3239;48.714;9.472;2023-05-23T04:11:01;98535.03;;;16.23;100.00
6413;BME280;3239;48.714;9.472;2023-05-23T04:13:27;98529.50;;;16.38;100.00
6413;BME280;3239;48.714;9.472;2023-05-23T04:15:53;98530.81;;;16.44;100.00
6413;BME280;3239;48.714;9.472;2023-05-23T04:18:22;98525.81;;;16.50;100.00
6413;BME280;3239;48.714;9.472;2023-05-23T04:20:48;98528.00;;;16.52;100.00
6413;BME280;3239;48.714;9.472;2023-05-23T04:23:14;98522.69;;;16.54;100.00
6413;BME280;3239;48.714;9.472;2023-05-23T04:25:40;98522.13;;;16.55;100.00
6413;BME280;3239;48.714;9.472;2023-05-23T04:28:05;98519.72;;;16.37;100.00
6413;BME280;3239;48.714;9.472;2023-05-23T04:30:32;98523.22;;;16.37;100.00
6413;BME280;3239;48.714;9.472;2023-05-23T04:32:58;98529.84;;;16.57;100.00
6413;BME280;3239;48.714;9.472;2023-05-23T04:35:25;98523.41;;;16.54;100.00
6413;BME280;3239;48.714;9.472;2023-05-23T04:37:54;98519.94;;;16.46;100.00
6413;BME280;3239;48.714;9.472;2023-05-23T04:40:22;98528.00;;;16.52;100.00
6413;BME280;3239;48.714;9.472;2023-05-23T04:42:49;98534.09;;;16.65;100.00
6413;BME280;3239;48.714;9.472;2023-05-23T04:45:18;98521.72;;;16.74;100.00
6413;BME280;3239;48.714;9.472;2023-05-23T04:47:47;98522.81;;;16.71;100.00
6413;BME280;3239;48.714;9.472;2023-05-23T04:50:13;98522.06;;;16.78;100.00
6413;BME280;3239;48.714;9.472;2023-05-23T04:52:40;98517.13;;;16.69;100.00
6413;BME280;3239;48.714;9.472;2023-05-23T04:55:07;98518.78;;;16.57;100.00
6413;BME280;3239;48.714;9.472;2023-05-23T04:57:34;98531.13;;;16.63;100.00
6413;BME280;3239;48.714;9.472;2023-05-23T05:00:00;98532.25;;;16.60;100.00
6413;BME280;3239;48.714;9.472;2023-05-23T05:02:26;98545.34;;;16.67;100.00
6413;BME280;3239;48.714;9.472;2023-05-23T05:04:52;98550.84;;;16.75;100.00
6413;BME280;3239;48.714;9.472;2023-05-23T05:07:18;98546.41;;;16.79;100.00
6413;BME280;3239;48.714;9.472;2023-05-23T05:09:43;98554.91;;;16.81;100.00
6413;BME280;3239;48.714;9.472;2023-05-23T05:12:09;98557.13;;;16.75;100.00
6413;BME280;3239;48.714;9.472;2023-05-23T05:14:36;98555.25;;;16.78;100.00
6413;BME280;3239;48.714;9.472;2023-05-23T05:17:01;98553.44;;;16.73;100.00
6413;BME280;3239;48.714;9.472;2023-05-23T05:19:28;98558.78;;;16.71;100.00
6413;BME280;3239;48.714;9.472;2023-05-23T05:21:54;98554.00;;;16.71;100.00
6413;BME280;3239;48.714;9.472;2023-05-23T05:24:19;98559.88;;;16.75;100.00
6413;BME280;3239;48.714;9.472;2023-05-23T05:26:47;98567.84;;;16.79;100.00
6413;BME280;3239;48.714;9.472;2023-05-23T05:29:13;98566.50;;;16.95;100.00
6413;BME280;3239;48.714;9.472;2023-05-23T05:31:39;98564.78;;;17.07;100.00
6413;BME280;3239;48.714;9.472;2023-05-23T05:34:05;98565.50;;;17.15;100.00
6413;BME280;3239;48.714;9.472;2023-05-23T05:36:31;98564.91;;;17.24;100.00
6413;BME280;3239;48.714;9.472;2023-05-23T05:38:57;98556.97;;;17.28;100.00
6413;BME280;3239;48.714;9.472;2023-05-23T05:41:22;98554.56;;;17.32;100.00
6413;BME280;3239;48.714;9.472;2023-05-23T05:43:48;98550.47;;;17.40;100.00
6413;BME280;3239;48.714;9.472;2023-05-23T05:46:14;98543.22;;;17.52;100.00
6413;BME280;3239;48.714;9.472;2023-05-23T05:48:40;98541.34;;;17.55;100.00
6413;BME280;3239;48.714;9.472;2023-05-23T05:51:05;98539.06;;;17.68;100.00
6413;BME280;3239;48.714;9.472;2023-05-23T05:53:31;98520.44;;;17.61;100.00
6413;BME280;3239;48.714;9.472;2023-05-23T05:55:57;98521.88;;;17.70;100.00
6413;BME280;3239;48.714;9.472;2023-05-23T05:58:22;98520.50;;;17.78;100.00
6413;BME280;3239;48.714;9.472;2023-05-23T06:00:48;98500.50;;;17.87;100.00
6413;BME280;3239;48.714;9.472;2023-05-23T06:03:14;98485.09;;;17.94;100.00
6413;BME280;3239;48.714;9.472;2023-05-23T06:05:40;98475.88;;;18.16;100.00
6413;BME280;3239;48.714;9.472;2023-05-23T06:08:06;98468.66;;;18.37;100.00
6413;BME280;3239;48.714;9.472;2023-05-23T06:10:32;98438.25;;;18.22;100.00
6413;BME280;3239;48.714;9.472;2023-05-23T06:12:58;98434.81;;;18.39;100.00
6413;BME280;3239;48.714;9.472;2023-05-23T06:15:25;98423.53;;;18.54;100.00
6413;BME280;3239;48.714;9.472;2023-05-23T06:17:51;98408.94;;;18.53;100.00
6413;BME280;3239;48.714;9.472;2023-05-23T06:20:17;98407.53;;;18.62;100.00
6413;BME280;3239;48.714;9.472;2023-05-23T06:22:42;98399.06;;;18.86;100.00
6413;BME280;3239;48.714;9.472;2023-05-23T06:25:08;98401.47;;;18.73;100.00
6413;BME280;3239;48.714;9.472;2023-05-23T06:27:34;98401.97;;;19.05;100.00
6413;BME280;3239;48.714;9.472;2023-05-23T06:30:00;98366.50;;;18.87;100.00
6413;BME280;3239;48.714;9.472;2023-05-23T06:32:25;98380.75;;;18.74;100.00
6413;BME280;3239;48.714;9.472;2023-05-23T06:34:51;98381.31;;;18.72;100.00
6413;BME280;3239;48.714;9.472;2023-05-23T06:37:17;98374.59;;;18.92;100.00
6413;BME280;3239;48.714;9.472;2023-05-23T06:39:42;98362.25;;;19.12;100.00
6413;BME280;3239;48.714;9.472;2023-05-23T06:42:08;98355.25;;;19.21;100.00
6413;BME280;3239;48.714;9.472;2023-05-23T06:44:34;98350.69;;;19.33;100.00
6413;BME280;3239;48.714;9.472;2023-05-23T06:47:00;98344.66;;;19.27;100.00
6413;BME280;3239;48.714;9.472;2023-05-23T06:49:25;98344.00;;;19.19;100.00
6413;BME280;3239;48.714;9.472;2023-05-23T06:51:51;98344.69;;;19.10;100.00
6413;BME280;3239;48.714;9.472;2023-05-23T06:54:18;98352.72;;;18.79;100.00
6413;BME280;3239;48.714;9.472;2023-05-23T06:56:44;98357.84;;;18.83;100.00
6413;BME280;3239;48.714;9.472;2023-05-23T06:59:10;98369.47;;;18.72;100.00
6413;BME280;3239;48.714;9.472;2023-05-23T07:01:35;98392.56;;;18.74;100.00
6413;BME280;3239;48.714;9.472;2023-05-23T07:04:01;98389.00;;;18.64;100.00
6413;BME280;3239;48.714;9.472;2023-05-23T07:06:27;98399.63;;;18.58;100.00
6413;BME280;3239;48.714;9.472;2023-05-23T07:08:53;98403.56;;;18.55;100.00
6413;BME280;3239;48.714;9.472;2023-05-23T07:11:22;98419.53;;;18.47;100.00
6413;BME280;3239;48.714;9.472;2023-05-23T07:13:47;98426.56;;;18.48;100.00
6413;BME280;3239;48.714;9.472;2023-05-23T07:16:13;98428.44;;;18.46;100.00
6413;BME280;3239;48.714;9.472;2023-05-23T07:18:39;98436.69;;;18.53;100.00
6413;BME280;3239;48.714;9.472;2023-05-23T07:21:05;98437.31;;;18.44;100.00
6413;BME280;3239;48.714;9.472;2023-05-23T07:23:34;98441.09;;;18.56;100.00
6413;BME280;3239;48.714;9.472;2023-05-23T07:26:00;98436.25;;;18.57;100.00
6413;BME280;3239;48.714;9.472;2023-05-23T07:28:27;98438.94;;;18.64;100.00
6413;BME280;3239;48.714;9.472;2023-05-23T07:30:53;98447.69;;;18.61;100.00
6413;BME280;3239;48.714;9.472;2023-05-23T07:33:19;98442.22;;;18.53;100.00
6413;BME280;3239;48.714;9.472;2023-05-23T07:35:45;98450.22;;;18.49;100.00
6413;BME280;3239;48.714;9.472;2023-05-23T07:38:11;98454.16;;;18.46;100.00
6413;BME280;3239;48.714;9.472;2023-05-23T07:40:37;98455.94;;;18.51;100.00
6413;BME280;3239;48.714;9.472;2023-05-23T07:43:04;98458.94;;;18.63;100.00
6413;BME280;3239;48.714;9.472;2023-05-23T07:45:30;98446.88;;;18.51;100.00
6413;BME280;3239;48.714;9.472;2023-05-23T07:47:56;98438.97;;;18.47;100.00
6413;BME280;3239;48.714;9.472;2023-05-23T07:50:22;98439.38;;;18.61;100.00
6413;BME280;3239;48.714;9.472;2023-05-23T07:52:48;98439.44;;;18.70;100.00
6413;BME280;3239;48.714;9.472;2023-05-23T07:55:15;98419.63;;;18.74;100.00
6413;BME280;3239;48.714;9.472;2023-05-23T07:57:41;98428.84;;;18.59;100.00
6413;BME280;3239;48.714;9.472;2023-05-23T08:00:07;98421.97;;;18.60;100.00
6413;BME280;3239;48.714;9.472;2023-05-23T08:02:34;98427.75;;;18.72;100.00
6413;BME280;3239;48.714;9.472;2023-05-23T08:05:00;98429.31;;;18.65;100.00
6413;BME280;3239;48.714;9.472;2023-05-23T08:07:26;98427.84;;;18.64;100.00
6413;BME280;3239;48.714;9.472;2023-05-23T08:09:52;98419.38;;;18.62;100.00
6413;BME280;3239;48.714;9.472;2023-05-23T08:12:17;98426.66;;;18.58;100.00
6413;BME280;3239;48.714;9.472;2023-05-23T08:14:43;98426.53;;;18.14;100.00
6413;BME280;3239;48.714;9.472;2023-05-23T08:17:11;98435.50;;;18.22;100.00
6413;BME280;3239;48.714;9.472;2023-05-23T08:19:37;98426.03;;;18.25;100.00
6413;BME280;3239;48.714;9.472;2023-05-23T08:22:03;98421.31;;;18.69;100.00
6413;BME280;3239;48.714;9.472;2023-05-23T08:24:29;98403.28;;;19.04;100.00
6413;BME280;3239;48.714;9.472;2023-05-23T08:26:55;98373.56;;;18.97;100.00
6413;BME280;3239;48.714;9.472;2023-05-23T08:29:21;98383.84;;;19.04;100.00
6413;BME280;3239;48.714;9.472;2023-05-23T08:31:47;98379.88;;;18.98;100.00
6413;BME280;3239;48.714;9.472;2023-05-23T08:34:12;98385.09;;;18.94;100.00
6413;BME280;3239;48.714;9.472;2023-05-23T08:36:39;98387.25;;;19.12;100.00
6413;BME280;3239;48.714;9.472;2023-05-23T08:39:06;98374.75;;;19.57;100.00
6413;BME280;3239;48.714;9.472;2023-05-23T08:41:34;98352.06;;;19.51;100.00
6413;BME280;3239;48.714;9.472;2023-05-23T08:44:00;98355.25;;;19.47;100.00
6413;BME280;3239;48.714;9.472;2023-05-23T08:46:26;98337.59;;;19.62;100.00
6413;BME280;3239;48.714;9.472;2023-05-23T08:48:53;98344.34;;;19.59;100.00
6413;BME280;3239;48.714;9.472;2023-05-23T08:51:25;98331.81;;;19.31;100.00
6413;BME280;3239;48.714;9.472;2023-05-23T08:53:53;98341.81;;;19.17;100.00
6413;BME280;3239;48.714;9.472;2023-05-23T08:56:21;98346.03;;;19.18;100.00
6413;BME280;3239;48.714;9.472;2023-05-23T08:58:49;98341.19;;;19.09;100.00
6413;BME280;3239;48.714;9.472;2023-05-23T09:01:18;98349.06;;;19.30;100.00
6413;BME280;3239;48.714;9.472;2023-05-23T09:03:45;98346.38;;;19.22;100.00
6413;BME280;3239;48.714;9.472;2023-05-23T09:06:11;98351.13;;;19.39;100.00
6413;BME280;3239;48.714;9.472;2023-05-23T09:08:37;98343.59;;;19.22;100.00
6413;BME280;3239;48.714;9.472;2023-05-23T09:11:05;98342.38;;;19.16;100.00
6413;BME280;3239;48.714;9.472;2023-05-23T09:13:32;98357.44;;;19.13;100.00
6413;BME280;3239;48.714;9.472;2023-05-23T09:18:37;98344.69;;;19.36;100.00
6413;BME280;3239;48.714;9.472;2023-05-23T09:21:04;98353.81;;;19.56;100.00
6413;BME280;3239;48.714;9.472;2023-05-23T09:23:38;98364.25;;;19.65;100.00
6413;BME280;3239;48.714;9.472;2023-05-23T09:26:09;98352.03;;;19.41;100.00
6413;BME280;3239;48.714;9.472;2023-05-23T09:28:37;98346.63;;;19.43;100.00
6413;BME280;3239;48.714;9.472;2023-05-23T09:31:07;98343.06;;;19.88;100.00
6413;BME280;3239;48.714;9.472;2023-05-23T09:33:47;98344.53;;;19.89;100.00
6413;BME280;3239;48.714;9.472;2023-05-23T09:36:14;98331.22;;;19.97;100.00
6413;BME280;3239;48.714;9.472;2023-05-23T09:38:46;98328.28;;;19.95;100.00
6413;BME280;3239;48.714;9.472;2023-05-23T09:41:13;98316.91;;;20.29;100.00
6413;BME280;3239;48.714;9.472;2023-05-23T09:43:48;98324.59;;;20.78;100.00
6413;BME280;3239;48.714;9.472;2023-05-23T09:46:14;98293.16;;;22.09;100.00
6413;BME280;3239;48.714;9.472;2023-05-23T09:48:49;98272.13;;;22.73;100.00
6413;BME280;3239;48.714;9.472;2023-05-23T09:51:19;98263.31;;;22.44;100.00
6413;BME280;3239;48.714;9.472;2023-05-23T09:53:46;98259.53;;;23.18;100.00
6413;BME280;3239;48.714;9.472;2023-05-23T09:56:12;98258.22;;;23.79;100.00
6413;BME280;3239;48.714;9.472;2023-05-23T09:58:48;98248.44;;;23.55;100.00
6413;BME280;3239;48.714;9.472;2023-05-23T10:01:15;98246.41;;;24.67;100.00
6413;BME280;3239;48.714;9.472;2023-05-23T10:03:48;98238.16;;;25.09;100.00
6413;BME280;3239;48.714;9.472;2023-05-23T10:06:25;98241.16;;;24.86;100.00
6413;BME280;3239;48.714;9.472;2023-05-23T10:09:05;98242.31;;;24.56;100.00
6413;BME280;3239;48.714;9.472;2023-05-23T10:14:11;98238.06;;;25.21;100.00
6413;BME280;3239;48.714;9.472;2023-05-23T10:19:44;98237.66;;;24.99;100.00
6413;BME280;3239;48.714;9.472;2023-05-23T10:22:13;98233.50;;;23.87;100.00
6413;BME280;3239;48.714;9.472;2023-05-23T10:24:41;98240.66;;;23.42;100.00
6413;BME280;3239;48.714;9.472;2023-05-23T10:27:08;98246.25;;;23.42;100.00
6413;BME280;3239;48.714;9.472;2023-05-23T10:29:34;98253.84;;;23.28;100.00
6413;BME280;3239;48.714;9.472;2023-05-23T10:32:01;98241.88;;;23.50;100.00
6413;BME280;3239;48.714;9.472;2023-05-23T10:34:43;98245.91;;;23.24;100.00
6413;BME280;3239;48.714;9.472;2023-05-23T10:37:28;98243.34;;;23.99;100.00
6413;BME280;3239;48.714;9.472;2023-05-23T10:45:40;98236.91;;;23.37;100.00
6413;BME280;3239;48.714;9.472;2023-05-23T10:51:08;98235.22;;;23.44;100.00
6413;BME280;3239;48.714;9.472;2023-05-23T10:53:36;98244.44;;;23.00;100.00
6413;BME280;3239;48.714;9.472;2023-05-23T10:56:08;98252.06;;;22.21;100.00
6413;BME280;3239;48.714;9.472;2023-05-23T10:58:36;98246.84;;;21.95;100.00
6413;BME280;3239;48.714;9.472;2023-05-23T11:01:08;98267.03;;;22.05;100.00
6413;BME280;3239;48.714;9.472;2023-05-23T11:06:42;98260.69;;;21.72;100.00
6413;BME280;3239;48.714;9.472;2023-05-23T11:09:17;98264.75;;;21.29;100.00
6413;BME280;3239;48.714;9.472;2023-05-23T11:14:17;98272.88;;;21.15;100.00
6413;BME280;3239;48.714;9.472;2023-05-23T11:16:44;98270.59;;;21.02;100.00
6413;BME280;3239;48.714;9.472;2023-05-23T11:22:04;98273.66;;;21.37;100.00
6413;BME280;3239;48.714;9.472;2023-05-23T11:24:53;98269.09;;;21.62;100.00
6413;BME280;3239;48.714;9.472;2023-05-23T11:27:34;98257.31;;;21.73;100.00
6413;BME280;3239;48.714;9.472;2023-05-23T11:30:16;98263.28;;;20.97;100.00
6413;BME280;3239;48.714;9.472;2023-05-23T11:32:51;98269.88;;;21.02;100.00
6413;BME280;3239;48.714;9.472;2023-05-23T11:35:17;98267.44;;;21.17;100.00
6413;BME280;3239;48.714;9.472;2023-05-23T11:37:43;98263.72;;;21.55;100.00
6413;BME280;3239;48.714;9.472;2023-05-23T11:40:41;98264.72;;;21.59;100.00
6413;BME280;3239;48.714;9.472;2023-05-23T11:43:12;98266.47;;;21.85;100.00
6413;BME280;3239;48.714;9.472;2023-05-23T11:45:40;98265.78;;;21.96;100.00
6413;BME280;3239;48.714;9.472;2023-05-23T11:48:12;98262.56;;;22.11;100.00
6413;BME280;3239;48.714;9.472;2023-05-23T11:50:53;98269.19;;;21.74;100.00
6413;BME280;3239;48.714;9.472;2023-05-23T11:53:21;98263.53;;;21.83;100.00
6413;BME280;3239;48.714;9.472;2023-05-23T11:55:52;98253.25;;;22.18;100.00
6413;BME280;3239;48.714;9.472;2023-05-23T11:58:21;98256.13;;;22.41;100.00
6413;BME280;3239;48.714;9.472;2023-05-23T12:00:47;98253.97;;;21.86;100.00
6413;BME280;3239;48.714;9.472;2023-05-23T12:03:13;98251.69;;;22.15;100.00
6413;BME280;3239;48.714;9.472;2023-05-23T12:05:38;98248.66;;;22.67;100.00
6413;BME280;3239;48.714;9.472;2023-05-23T12:08:11;98253.13;;;22.16;100.00
6413;BME280;3239;48.714;9.472;2023-05-23T12:10:51;98241.09;;;21.81;100.00
6413;BME280;3239;48.714;9.472;2023-05-23T12:13:19;98248.34;;;22.07;100.00
6413;BME280;3239;48.714;9.472;2023-05-23T12:15:45;98248.53;;;21.67;100.00
6413;BME280;3239;48.714;9.472;2023-05-23T12:18:12;98240.41;;;21.92;100.00
6413;BME280;3239;48.714;9.472;2023-05-23T12:20:39;98240.75;;;21.66;100.00
6413;BME280;3239;48.714;9.472;2023-05-23T12:23:05;98238.97;;;22.24;100.00
6413;BME280;3239;48.714;9.472;2023-05-23T12:25:40;98240.47;;;22.04;100.00
6413;BME280;3239;48.714;9.472;2023-05-23T12:28:09;98229.00;;;21.88;100.00
6413;BME280;3239;48.714;9.472;2023-05-23T12:30:42;98230.38;;;22.31;100.00
6413;BME280;3239;48.714;9.472;2023-05-23T12:33:09;98214.06;;;22.16;100.00
6413;BME280;3239;48.714;9.472;2023-05-23T12:35:34;98225.09;;;22.14;100.00
6413;BME280;3239;48.714;9.472;2023-05-23T12:38:00;98223.41;;;22.21;100.00
6413;BME280;3239;48.714;9.472;2023-05-23T12:40:28;98233.16;;;21.99;100.00
6413;BME280;3239;48.714;9.472;2023-05-23T12:42:55;98225.00;;;21.49;100.00
6413;BME280;3239;48.714;9.472;2023-05-23T12:45:32;98234.25;;;21.73;100.00
6413;BME280;3239;48.714;9.472;2023-05-23T12:47:58;98233.09;;;21.87;100.00
6413;BME280;3239;48.714;9.472;2023-05-23T12:50:24;98222.41;;;21.63;100.00
6413;BME280;3239;48.714;9.472;2023-05-23T12:52:50;98231.66;;;21.86;100.00
6413;BME280;3239;48.714;9.472;2023-05-23T12:55:17;98219.41;;;22.24;100.00
6413;BME280;3239;48.714;9.472;2023-05-23T12:57:42;98215.41;;;22.27;100.00
6413;BME280;3239;48.714;9.472;2023-05-23T13:00:09;98217.22;;;22.22;100.00
6413;BME280;3239;48.714;9.472;2023-05-23T13:02:36;98208.72;;;22.64;100.00
6413;BME280;3239;48.714;9.472;2023-05-23T13:05:02;98210.25;;;22.44;100.00
6413;BME280;3239;48.714;9.472;2023-05-23T13:07:28;98211.31;;;22.39;100.00
6413;BME280;3239;48.714;9.472;2023-05-23T13:09:53;98213.06;;;22.44;100.00
6413;BME280;3239;48.714;9.472;2023-05-23T13:12:19;98210.19;;;22.54;100.00
6413;BME280;3239;48.714;9.472;2023-05-23T13:14:45;98209.91;;;22.50;100.00
6413;BME280;3239;48.714;9.472;2023-05-23T13:17:11;98212.16;;;22.86;100.00
6413;BME280;3239;48.714;9.472;2023-05-23T13:19:37;98216.50;;;22.66;100.00
6413;BME280;3239;48.714;9.472;2023-05-23T13:22:05;98211.53;;;22.76;100.00
6413;BME280;3239;48.714;9.472;2023-05-23T13:24:37;98206.81;;;22.34;100.00
6413;BME280;3239;48.714;9.472;2023-05-23T13:27:07;98208.00;;;21.87;100.00
6413;BME280;3239;48.714;9.472;2023-05-23T13:29:33;98220.44;;;22.07;100.00
6413;BME280;3239;48.714;9.472;2023-05-23T13:31:59;98215.94;;;22.35;100.00
6413;BME280;3239;48.714;9.472;2023-05-23T13:34:25;98213.03;;;22.33;100.00
6413;BME280;3239;48.714;9.472;2023-05-23T13:36:53;98211.44;;;22.30;100.00
6413;BME280;3239;48.714;9.472;2023-05-23T13:39:19;98206.28;;;22.59;100.00
6413;BME280;3239;48.714;9.472;2023-05-23T13:41:49;98207.84;;;22.50;100.00
6413;BME280;3239;48.714;9.472;2023-05-23T13:44:15;98208.44;;;22.05;100.00